createdAt,value
2023-08-14T00:01:28.659Z,101663.41
2023-08-14T00:11:50.125Z,101664.81
2023-08-14T00:22:13.103Z,101662.00
2023-08-14T00:32:34.700Z,101667.22
2023-08-14T00:42:56.119Z,101659.78
2023-08-14T00:53:18.627Z,101667.72
2023-08-14T01:03:40.061Z,101672.50
2023-08-14T01:14:31.068Z,101672.81
2023-08-14T01:24:52.455Z,101660.03
2023-08-14T01:35:14.577Z,101651.06
2023-08-14T01:45:36.691Z,101657.56
2023-08-14T01:55:58.153Z,101650.00
2023-08-14T02:06:19.586Z,101643.50
2023-08-14T02:16:41.056Z,101637.81
2023-08-14T02:27:02.470Z,101639.00
2023-08-14T02:37:23.929Z,101632.28
2023-08-14T02:47:45.517Z,101624.09
2023-08-14T02:58:06.960Z,101622.75
2023-08-14T03:08:28.578Z,101622.38
2023-08-14T03:18:50.033Z,101622.59
2023-08-14T03:29:11.544Z,101625.72
2023-08-14T03:39:32.979Z,101621.69
2023-08-14T03:49:54.484Z,101622.84
2023-08-14T04:00:16.049Z,101617.81
2023-08-14T04:10:38.357Z,101631.75
2023-08-14T04:21:00.100Z,101627.56
2023-08-14T04:31:21.562Z,101631.16
2023-08-14T04:41:43.113Z,101628.00
2023-08-14T04:52:04.698Z,101615.69
2023-08-14T05:02:26.213Z,101603.94
2023-08-14T05:12:48.246Z,101619.91
2023-08-14T05:23:09.669Z,101614.22
2023-08-14T05:33:31.104Z,101602.03
2023-08-14T05:43:52.582Z,101616.69
2023-08-14T05:54:14.070Z,101625.47
2023-08-14T06:04:37.955Z,101618.16
2023-08-14T06:14:59.653Z,101617.28
2023-08-14T06:25:21.956Z,101618.19
2023-08-14T06:35:43.466Z,101631.88
2023-08-14T06:46:04.965Z,101628.56
2023-08-14T06:56:26.452Z,101608.81
2023-08-14T07:06:47.867Z,101599.75
2023-08-14T07:17:09.271Z,101597.63
2023-08-14T07:27:30.704Z,101601.00
2023-08-14T07:37:52.148Z,101609.19
2023-08-14T07:48:13.664Z,101617.09
2023-08-14T07:58:35.251Z,101616.75
2023-08-14T08:08:56.717Z,101633.06
2023-08-14T08:19:18.190Z,101636.56
2023-08-14T08:29:39.643Z,101639.56
2023-08-14T08:40:01.037Z,101638.16
2023-08-14T08:50:22.495Z,101634.44
2023-08-14T09:00:44.359Z,101611.69
2023-08-14T09:11:05.771Z,101586.28
2023-08-14T09:21:28.220Z,101574.84
2023-08-14T09:31:49.861Z,101573.13
2023-08-14T09:42:12.764Z,101575.69
2023-08-14T09:52:34.438Z,101568.47
2023-08-14T10:02:56.957Z,101576.41
2023-08-14T10:13:19.577Z,101570.28
2023-08-14T10:23:41.741Z,101586.09
2023-08-14T10:34:03.537Z,101589.78
2023-08-14T10:44:31.988Z,101573.91
2023-08-14T10:54:53.852Z,101544.75
2023-08-14T11:05:17.808Z,101535.59
2023-08-14T11:15:40.337Z,101540.59
2023-08-14T11:26:01.788Z,101533.84
2023-08-14T11:36:24.948Z,101516.56
2023-08-14T11:46:46.958Z,101497.22
2023-08-14T11:57:09.433Z,101503.25
2023-08-14T12:07:30.867Z,101496.22
2023-08-14T12:17:52.649Z,101505.84
2023-08-14T12:28:14.595Z,101494.34
2023-08-14T12:38:36.004Z,101494.06
2023-08-14T12:48:58.013Z,101500.31
2023-08-14T12:59:24.325Z,101471.91
2023-08-14T13:09:46.025Z,101477.28
2023-08-14T13:20:08.445Z,101460.41
2023-08-14T13:30:29.913Z,101461.84
2023-08-14T13:40:51.347Z,101464.41
2023-08-14T13:51:12.930Z,101468.81
2023-08-14T14:01:34.628Z,101459.91
2023-08-14T14:11:56.172Z,101463.00
2023-08-14T14:22:17.611Z,101440.69
2023-08-14T14:32:39.240Z,101429.69
2023-08-14T14:43:01.333Z,101426.09
2023-08-14T14:53:22.774Z,101405.34
2023-08-14T15:03:44.404Z,101404.09
2023-08-14T15:14:06.014Z,101394.19
2023-08-14T15:24:27.456Z,101384.03
2023-08-14T15:34:49.084Z,101368.19
2023-08-14T15:45:12.148Z,101362.41
2023-08-14T15:55:38.314Z,101349.06
2023-08-14T16:05:59.774Z,101325.63
2023-08-14T16:16:21.228Z,101323.13
2023-08-14T16:26:44.142Z,101324.94
2023-08-14T16:37:05.737Z,101326.75
2023-08-14T16:47:29.078Z,101319.75
2023-08-14T16:57:50.607Z,101340.34
2023-08-14T17:08:12.047Z,101345.50
2023-08-14T17:18:33.522Z,101352.28
2023-08-14T17:28:54.981Z,101361.56
2023-08-14T17:39:16.509Z,101361.13
2023-08-14T17:49:38.152Z,101360.75
2023-08-14T17:59:59.645Z,101364.34
2023-08-14T18:10:21.107Z,101361.53
2023-08-14T18:20:42.558Z,101358.34
2023-08-14T18:31:04.721Z,101359.72
2023-08-14T18:41:26.216Z,101353.59
2023-08-14T18:51:47.802Z,101353.53
2023-08-14T19:02:09.657Z,101356.31
2023-08-14T19:12:31.105Z,101356.09
2023-08-14T19:22:52.551Z,101367.25
2023-08-14T19:33:14.093Z,101357.34
2023-08-14T19:43:35.562Z,101351.69
2023-08-14T19:53:57.054Z,101342.88
2023-08-14T20:04:18.779Z,101344.63
2023-08-14T20:14:41.324Z,101335.13
2023-08-14T20:25:02.805Z,101333.22
2023-08-14T20:35:24.273Z,101343.00
2023-08-14T20:45:45.724Z,101330.84
2023-08-14T20:56:07.322Z,101334.28
2023-08-14T21:06:28.774Z,101330.47
2023-08-14T21:16:50.223Z,101325.88
2023-08-14T21:27:12.407Z,101336.78
2023-08-14T21:37:34.108Z,101339.72
2023-08-14T21:47:55.646Z,101333.28
2023-08-14T21:58:17.517Z,101347.44
2023-08-14T22:08:39.025Z,101333.75
2023-08-14T22:19:00.446Z,101344.31
2023-08-14T22:29:21.886Z,101337.56
2023-08-14T22:39:43.318Z,101339.91
2023-08-14T22:50:04.969Z,101338.84
2023-08-14T23:00:26.986Z,101338.84
2023-08-14T23:10:48.456Z,101330.00
2023-08-14T23:21:09.866Z,101328.94
2023-08-14T23:31:31.321Z,101319.94
2023-08-14T23:41:52.751Z,101313.94
2023-08-14T23:52:14.211Z,101306.59
